Time;durP1;ratioP1;P1;durP2;ratioP2;P2;SDS_P1;SDS_P2;PMS_P1;PMS_P2;Temp;Humidity;BMP_temperature;BMP_pressure;BME280_temperature;BME280_humidity;BME280_pressure;Samples;Min_cycle;Max_cycle;Signal;HPM_P1;HPM_P2
2023/06/19 17:30:29;;;;;;;7.93;5.38;;;34.00;50.60;;;;;;5443766;23;20057;-55
2023/06/19 17:32:55;;;;;;;8.23;4.90;;;33.90;50.80;;;;;;4840005;29;20038;-54
2023/06/19 17:35:20;;;;;;;6.60;5.15;;;33.90;52.10;;;;;;4829092;29;20078;-54
2023/06/19 17:37:46;;;;;;;6.05;4.57;;;33.90;52.30;;;;;;4835901;29;20035;-53
2023/06/19 17:40:12;;;;;;;10.38;4.90;;;33.90;52.50;;;;;;4835371;29;20030;-55
2023/06/19 17:42:41;;;;;;;5.18;4.68;;;33.90;52.00;;;;;;4836448;29;20058;-53
2023/06/19 17:45:08;;;;;;;11.52;5.50;;;33.90;52.30;;;;;;4840031;29;20041;-55
2023/06/19 17:47:34;;;;;;;7.85;5.57;;;33.90;53.00;;;;;;4837421;29;20075;-54
2023/06/19 17:50:00;;;;;;;7.00;5.28;;;33.90;52.50;;;;;;4833541;29;20049;-53
2023/06/19 17:52:26;;;;;;;7.68;5.20;;;33.90;51.40;;;;;;4829349;29;20031;-54
2023/06/19 17:54:53;;;;;;;8.65;5.05;;;33.80;51.70;;;;;;4822881;29;20118;-54
2023/06/19 17:57:20;;;;;;;5.93;4.97;;;33.80;52.80;;;;;;4792176;29;20030;-54
2023/06/19 17:59:46;;;;;;;7.55;5.22;;;33.70;52.40;;;;;;4803834;29;20168;-55
2023/06/19 18:02:12;;;;;;;6.82;5.20;;;33.60;53.30;;;;;;4832139;29;20030;-50
2023/06/19 18:04:38;;;;;;;6.18;4.82;;;33.50;53.70;;;;;;4829401;29;20558;-53
2023/06/19 18:07:04;;;;;;;7.82;5.15;;;33.40;53.50;;;;;;4838919;29;20105;-54
2023/06/19 18:09:30;;;;;;;8.32;4.80;;;33.20;53.90;;;;;;4809017;29;20042;-54
2023/06/19 18:11:57;;;;;;;5.25;4.75;;;33.00;54.30;;;;;;4824911;29;20026;-55
2023/06/19 18:14:26;;;;;;;13.77;5.75;;;33.00;54.80;;;;;;4827537;29;20618;-52
2023/06/19 18:16:57;;;;;;;7.57;5.85;;;32.90;55.60;;;;;;4829018;29;20037;-55
2023/06/19 18:19:23;;;;;;;7.15;5.18;;;32.70;56.10;;;;;;4820428;29;20079;-58
2023/06/19 18:21:49;;;;;;;7.88;5.30;;;32.50;56.70;;;;;;4818415;29;20035;-52
2023/06/19 18:24:15;;;;;;;6.43;5.82;;;32.40;56.90;;;;;;4819050;29;20053;-52
2023/06/19 18:26:41;;;;;;;;;;;32.20;57.80;;;;;;4816534;29;20088;-52
2023/06/19 18:29:07;;;;;;;5.80;5.30;;;32.00;58.50;;;;;;4826994;29;20749;-52
2023/06/19 18:31:33;;;;;;;12.98;6.38;;;31.90;58.00;;;;;;4832120;29;20057;-53
2023/06/19 18:33:58;;;;;;;6.00;5.15;;;31.80;57.50;;;;;;4842584;29;20033;-51
2023/06/19 18:36:25;;;;;;;8.20;5.45;;;31.70;56.40;;;;;;4828966;29;20039;-50
2023/06/19 18:38:51;;;;;;;6.30;4.53;;;31.60;55.30;;;;;;4822675;29;20047;-50
2023/06/19 18:41:17;;;;;;;;;;;31.40;53.70;;;;;;4816399;29;20063;-52
2023/06/19 18:43:43;;;;;;;6.35;4.28;;;31.20;52.00;;;;;;4830810;29;19960;-50
2023/06/19 18:46:09;;;;;;;6.63;3.85;;;31.20;52.60;;;;;;4834195;29;20041;-52
2023/06/19 18:48:35;;;;;;;7.45;4.07;;;31.10;52.20;;;;;;4832135;29;20128;-51
2023/06/19 18:51:01;;;;;;;5.72;3.80;;;31.10;52.00;;;;;;4794021;29;20542;-48
2023/06/19 18:53:27;;;;;;;5.70;3.45;;;31.00;50.90;;;;;;4830331;29;20026;-51
2023/06/19 18:55:55;;;;;;;13.40;4.80;;;30.90;50.60;;;;;;4835598;29;20397;-52
2023/06/19 18:58:21;;;;;;;6.50;3.63;;;30.80;50.50;;;;;;4825566;29;20110;-49
2023/06/19 19:00:50;;;;;;;7.72;3.53;;;30.80;49.40;;;;;;4825627;29;20113;-50
2023/06/19 19:03:17;;;;;;;6.90;3.75;;;30.70;48.80;;;;;;4826815;29;20058;-53
2023/06/19 19:05:43;;;;;;;3.92;3.58;;;30.60;49.60;;;;;;4828275;29;20026;-50
2023/06/19 19:08:10;;;;;;;5.93;3.40;;;30.50;49.80;;;;;;4830567;29;20022;-53
2023/06/19 19:10:37;;;;;;;10.20;4.63;;;30.50;50.30;;;;;;4834712;29;20034;-49
2023/06/19 19:13:03;;;;;;;8.35;4.28;;;30.40;50.60;;;;;;4829516;29;20061;-51
2023/06/19 19:15:29;;;;;;;6.38;3.72;;;30.30;50.50;;;;;;4832758;29;20041;-50
2023/06/19 19:17:55;;;;;;;6.15;3.35;;;30.30;49.90;;;;;;4831594;29;20101;-51
2023/06/19 19:20:21;;;;;;;6.32;3.88;;;30.20;50.80;;;;;;4823896;29;20067;-53
2023/06/19 19:22:46;;;;;;;8.15;3.58;;;30.10;50.90;;;;;;4829418;29;20041;-56
2023/06/19 19:25:13;;;;;;;5.97;4.13;;;30.00;51.10;;;;;;4831546;29;20034;-55
2023/06/19 19:27:39;;;;;;;8.07;5.60;;;30.00;50.80;;;;;;4828803;29;20030;-53
2023/06/19 19:30:05;;;;;;;83.95;75.55;;;29.90;51.30;;;;;;4824098;29;20482;-52
2023/06/19 19:32:31;;;;;;;8.52;7.35;;;30.00;51.70;;;;;;4824716;29;20031;-53
2023/06/19 19:34:58;;;;;;;5.97;3.75;;;29.90;50.70;;;;;;4828178;29;20054;-52
2023/06/19 19:37:27;;;;;;;10.25;7.18;;;29.90;51.00;;;;;;4833673;29;20037;-52
2023/06/19 19:39:56;;;;;;;7.03;4.93;;;29.90;51.70;;;;;;4815678;29;20038;-51
2023/06/19 19:42:22;;;;;;;5.82;4.30;;;29.80;51.30;;;;;;4817895;29;20034;-53
2023/06/19 19:44:48;;;;;;;6.65;5.43;;;29.70;51.80;;;;;;4841259;29;20045;-49
2023/06/19 19:47:14;;;;;;;7.10;4.70;;;29.60;51.80;;;;;;4807400;29;20029;-53
2023/06/19 19:49:40;;;;;;;7.95;4.15;;;29.60;51.80;;;;;;4825449;29;20061;-53
2023/06/19 19:52:07;;;;;;;5.05;4.05;;;29.50;51.70;;;;;;4791454;29;20062;-49
2023/06/19 19:54:33;;;;;;;5.47;4.43;;;29.50;51.00;;;;;;4840572;29;20041;-52
2023/06/19 19:56:59;;;;;;;4.53;3.72;;;29.40;51.50;;;;;;4831483;29;20037;-53
2023/06/19 19:59:24;;;;;;;6.53;4.10;;;29.40;51.20;;;;;;4806222;29;20034;-54
2023/06/19 20:01:50;;;;;;;6.18;4.03;;;29.30;52.00;;;;;;4809599;29;20038;-53
2023/06/19 20:04:16;;;;;;;9.23;4.32;;;29.20;52.20;;;;;;4823628;29;20087;-53
2023/06/19 20:06:43;;;;;;;6.22;4.07;;;29.20;52.70;;;;;;4806917;29;20514;-53
2023/06/19 20:09:09;;;;;;;;;;;29.10;52.70;;;;;;4815651;29;20375;-51
2023/06/19 20:11:36;;;;;;;55.33;41.13;;;29.00;54.00;;;;;;4840630;29;19999;-52
2023/06/19 20:14:02;;;;;;;26.30;23.60;;;28.90;53.20;;;;;;4822087;29;20524;-51
2023/06/19 20:16:29;;;;;;;112.57;65.25;;;29.00;53.30;;;;;;4821473;29;20049;-52
2023/06/19 20:18:58;;;;;;;6.35;5.47;;;28.90;53.10;;;;;;4808556;29;20129;-56
2023/06/19 20:21:29;;;;;;;11.55;8.30;;;28.90;53.30;;;;;;4825674;29;20099;-55
2023/06/19 20:24:00;;;;;;;7.35;6.40;;;28.80;54.10;;;;;;4818089;29;20034;-53
2023/06/19 20:26:29;;;;;;;5.22;4.55;;;28.70;54.00;;;;;;4824948;29;20034;-53
2023/06/19 20:29:04;;;;;;;8.23;5.78;;;28.70;53.50;;;;;;4828191;29;20470;-56
2023/06/19 20:31:34;;;;;;;4.57;3.70;;;28.70;54.20;;;;;;4833283;29;20561;-53
2023/06/19 20:34:06;;;;;;;8.05;4.22;;;28.70;53.50;;;;;;4839157;29;20486;-54
2023/06/19 20:36:37;;;;;;;8.13;4.80;;;28.60;53.30;;;;;;4829738;29;20091;-51
2023/06/19 20:39:07;;;;;;;6.85;4.47;;;28.60;53.30;;;;;;4837310;29;20502;-54
2023/06/19 20:41:38;;;;;;;6.97;4.93;;;28.60;53.30;;;;;;4830031;29;20518;-50
2023/06/19 20:44:09;;;;;;;8.73;4.78;;;28.60;53.30;;;;;;4840289;29;20060;-50
2023/06/19 20:46:39;;;;;;;11.95;5.63;;;28.60;53.50;;;;;;4821191;29;20044;-52
2023/06/19 20:49:07;;;;;;;6.47;5.60;;;28.50;53.50;;;;;;4822472;29;20030;-57
2023/06/19 20:51:38;;;;;;;6.30;5.47;;;28.50;53.60;;;;;;4822346;29;20049;-51
2023/06/19 20:54:17;;;;;;;6.55;4.85;;;28.40;53.50;;;;;;4829707;29;20030;-52
2023/06/19 20:56:51;;;;;;;7.80;4.80;;;28.40;53.50;;;;;;4840045;29;20033;-50
2023/06/19 20:59:25;;;;;;;7.45;5.40;;;28.30;53.80;;;;;;4826909;29;20050;-51
2023/06/19 21:02:00;;;;;;;7.38;5.03;;;28.20;53.50;;;;;;4816298;29;20429;-52
2023/06/19 21:04:41;;;;;;;8.50;5.13;;;28.20;53.10;;;;;;4824676;29;20079;-50
2023/06/19 21:07:17;;;;;;;7.03;4.40;;;28.20;53.70;;;;;;4842631;29;20122;-53
2023/06/19 21:09:50;;;;;;;4.97;4.30;;;28.10;53.70;;;;;;4839648;29;20034;-50
